Time;durP1;ratioP1;P1;durP2;ratioP2;P2;SDS_P1;SDS_P2;PMS_P1;PMS_P2;Temp;Humidity;BMP_temperature;BMP_pressure;BME280_temperature;BME280_humidity;BME280_pressure;Samples;Min_cycle;Max_cycle;Signal;HPM_P1;HPM_P2
2022/11/03 15:53:22;;;;;;;;;16.00;7.00;;;;;;;;4296654;32;51573;-49
2022/11/03 15:56:06;;;;;;;;;14.00;10.75;;;;;;;;5057151;28;51206;-46
2022/11/03 15:58:50;;;;;;;;;14.25;9.00;;;;;;;;5056020;28;51282;-49
2022/11/03 16:01:35;;;;;;;;;19.50;15.50;;;;;;;;5056850;28;51149;-49
2022/11/03 16:04:19;;;;;;;;;15.00;9.50;;;;;;;;5056525;28;51128;-50
2022/11/03 16:07:04;;;;;;;;;18.25;13.25;;;;;;;;5056396;28;51131;-49
2022/11/03 16:09:48;;;;;;;;;16.50;13.25;;;;;;;;5056823;28;51130;-48
2022/11/03 16:12:34;;;;;;;;;12.50;10.75;;;;;;;;5055891;28;51016;-50
2022/11/03 16:15:19;;;;;;;;;16.75;9.25;;;;;;;;5056514;28;51689;-50
2022/11/03 16:18:03;;;;;;;;;12.00;9.25;;;;;;;;5056425;28;51125;-49
2022/11/03 16:20:47;;;;;;;;;7.50;6.00;;;;;;;;5056622;28;51156;-47
2022/11/03 16:23:32;;;;;;;;;13.00;8.50;;;;;;;;5056152;28;51041;-48
2022/11/03 16:26:20;;;;;;;;;13.50;10.50;;;;;;;;5056220;28;51081;-51
2022/11/03 16:29:04;;;;;;;;;10.25;8.00;;;;;;;;5056329;28;51125;-46
2022/11/03 16:31:49;;;;;;;;;9.00;7.25;;;;;;;;5056170;28;50947;-49
2022/11/03 16:34:33;;;;;;;;;9.00;8.00;;;;;;;;5056204;28;51118;-47
2022/11/03 16:37:17;;;;;;;;;13.25;8.00;;;;;;;;5055641;28;51547;-49
2022/11/03 16:40:03;;;;;;;;;4.25;4.25;;;;;;;;5056377;28;50989;-49
2022/11/03 16:42:47;;;;;;;;;11.00;6.75;;;;;;;;5055738;28;51059;-53
2022/11/03 16:45:31;;;;;;;;;7.00;5.50;;;;;;;;5056079;28;51311;-49
2022/11/03 16:48:15;;;;;;;;;11.25;6.25;;;;;;;;5051572;28;51491;-46
2022/11/03 16:51:00;;;;;;;;;7.00;6.00;;;;;;;;5052724;28;51205;-48
2022/11/03 16:53:44;;;;;;;;;11.50;6.00;;;;;;;;5044713;28;51035;-50
2022/11/03 16:56:29;;;;;;;;;9.50;9.00;;;;;;;;5041910;28;51049;-47
2022/11/03 16:59:13;;;;;;;;;8.25;7.50;;;;;;;;5036640;28;51163;-51
2022/11/03 17:01:58;;;;;;;;;12.50;7.75;;;;;;;;5041577;28;51096;-46
2022/11/03 17:04:42;;;;;;;;;13.25;6.50;;;;;;;;5041928;28;51002;-49
2022/11/03 17:07:27;;;;;;;;;7.75;4.25;;;;;;;;5035623;28;51078;-53
2022/11/03 17:10:11;;;;;;;;;12.75;8.00;;;;;;;;5041890;28;51152;-47
2022/11/03 17:12:55;;;;;;;;;9.25;5.25;;;;;;;;5041722;28;51266;-47
2022/11/03 17:15:40;;;;;;;;;8.50;6.00;;;;;;;;5036284;28;51311;-48
2022/11/03 17:18:24;;;;;;;;;6.00;5.00;;;;;;;;5041212;28;51438;-48
2022/11/03 17:21:09;;;;;;;;;10.00;8.00;;;;;;;;5041647;28;51156;-50
2022/11/03 17:23:53;;;;;;;;;11.75;5.75;;;;;;;;5033051;28;51116;-47
2022/11/03 17:26:51;;;;;;;;;9.75;7.75;;;;;;;;5036955;28;51066;-47
2022/11/03 17:29:43;;;;;;;;;13.00;8.75;;;;;;;;5053985;28;51369;-45
2022/11/03 17:32:39;;;;;;;;;14.25;9.50;;;;;;;;5041639;28;51290;-47
2022/11/03 17:35:34;;;;;;;;;10.00;6.25;;;;;;;;5042085;28;51086;-47
2022/11/03 17:38:18;;;;;;;;;7.50;5.75;;;;;;;;5041548;28;51152;-50
2022/11/03 17:41:03;;;;;;;;;9.25;7.25;;;;;;;;5041690;28;51066;-49
2022/11/03 17:43:47;;;;;;;;;13.50;7.25;;;;;;;;5041174;28;51300;-49
2022/11/03 17:46:32;;;;;;;;;9.75;8.00;;;;;;;;5040845;28;51168;-49
2022/11/03 17:49:16;;;;;;;;;7.75;6.00;;;;;;;;5041310;28;51064;-46
2022/11/03 17:52:00;;;;;;;;;11.75;8.25;;;;;;;;5040845;28;51459;-47
2022/11/03 17:54:45;;;;;;;;;10.50;6.00;;;;;;;;5041366;28;51152;-52
2022/11/03 17:57:30;;;;;;;;;14.75;8.25;;;;;;;;5039362;28;51148;-48
2022/11/03 18:00:16;;;;;;;;;12.50;8.25;;;;;;;;5041079;28;51128;-48
2022/11/03 18:03:00;;;;;;;;;4.75;4.75;;;;;;;;5040692;28;51156;-46
2022/11/03 18:05:44;;;;;;;;;14.25;6.50;;;;;;;;5040126;28;51002;-51
2022/11/03 18:08:29;;;;;;;;;12.75;7.75;;;;;;;;5038478;28;51354;-46
2022/11/03 18:13:15;;;;;;;;;7.50;6.50;;;;;;;;5039919;28;51208;-50
2022/11/03 18:14:19;;;;;;;;;11.00;8.50;;;;;;;;5040986;28;51176;-52
2022/11/03 18:17:03;;;;;;;;;8.50;5.75;;;;;;;;5038082;28;51567;-47
2022/11/03 18:19:48;;;;;;;;;12.50;6.00;;;;;;;;5039766;28;51414;-47
2022/11/03 18:22:32;;;;;;;;;10.50;7.00;;;;;;;;5036574;28;51135;-47
2022/11/03 18:25:18;;;;;;;;;14.75;7.75;;;;;;;;5035973;28;51173;-48
2022/11/03 18:28:02;;;;;;;;;10.25;7.75;;;;;;;;5038555;28;51624;-47
2022/11/03 18:30:48;;;;;;;;;11.75;8.50;;;;;;;;5034901;28;51077;-49
2022/11/03 18:33:34;;;;;;;;;11.50;7.25;;;;;;;;5037768;28;51180;-50
2022/11/03 18:36:19;;;;;;;;;10.75;6.75;;;;;;;;5040610;28;51130;-48
2022/11/03 18:39:03;;;;;;;;;10.00;9.00;;;;;;;;5035487;28;51191;-46
2022/11/03 18:41:47;;;;;;;;;13.25;8.50;;;;;;;;5035994;28;51417;-47
2022/11/03 18:44:33;;;;;;;;;19.75;9.50;;;;;;;;5037628;28;51517;-46
2022/11/03 18:47:17;;;;;;;;;20.25;8.00;;;;;;;;5039114;28;51123;-46
2022/11/03 18:50:01;;;;;;;;;10.25;9.00;;;;;;;;5034702;28;51140;-49
2022/11/03 18:52:47;;;;;;;;;11.75;9.50;;;;;;;;5031613;28;51436;-50
2022/11/03 18:55:31;;;;;;;;;7.75;7.00;;;;;;;;5036172;28;51432;-48
2022/11/03 18:58:17;;;;;;;;;13.50;7.00;;;;;;;;5030152;28;51133;-48
2022/11/03 19:01:01;;;;;;;;;10.75;9.50;;;;;;;;5036166;28;51427;-46
2022/11/03 19:03:46;;;;;;;;;13.00;7.50;;;;;;;;5039617;28;51014;-48
2022/11/03 19:06:30;;;;;;;;;11.50;9.75;;;;;;;;5035197;28;51609;-50
2022/11/03 19:09:18;;;;;;;;;9.25;6.00;;;;;;;;5039490;28;51132;-50
2022/11/03 19:12:02;;;;;;;;;9.50;4.50;;;;;;;;5033161;28;51202;-49
2022/11/03 19:14:48;;;;;;;;;8.00;8.00;;;;;;;;5038158;28;51166;-49
2022/11/03 19:17:34;;;;;;;;;9.00;7.00;;;;;;;;5035902;28;51537;-49
2022/11/03 19:20:19;;;;;;;;;8.50;7.00;;;;;;;;5035966;28;51128;-47
2022/11/03 19:23:03;;;;;;;;;5.75;4.50;;;;;;;;5037754;28;51389;-51
2022/11/03 19:25:48;;;;;;;;;9.00;6.25;;;;;;;;5037874;28;51112;-48
2022/11/03 19:28:33;;;;;;;;;9.50;5.75;;;;;;;;5033375;28;51506;-49
2022/11/03 19:31:27;;;;;;;;;11.00;9.00;;;;;;;;5036431;28;51424;-49
2022/11/03 19:34:13;;;;;;;;;12.00;6.75;;;;;;;;5035115;28;51538;-50
2022/11/03 19:36:58;;;;;;;;;12.25;8.00;;;;;;;;5035826;28;51469;-48
2022/11/03 19:39:42;;;;;;;;;10.00;6.00;;;;;;;;5034122;28;52225;-51
2022/11/03 19:42:27;;;;;;;;;6.00;3.75;;;;;;;;5038840;28;51140;-48
2022/11/03 19:45:16;;;;;;;;;7.75;6.50;;;;;;;;5033173;28;51232;-57
2022/11/03 19:48:01;;;;;;;;;8.50;4.75;;;;;;;;5032635;28;51472;-57
2022/11/03 19:50:45;;;;;;;;;10.50;7.00;;;;;;;;5032538;28;51116;-57
2022/11/03 19:53:30;;;;;;;;;5.00;5.00;;;;;;;;5035507;28;51018;-54
2022/11/03 19:56:15;;;;;;;;;5.75;4.00;;;;;;;;5036001;28;51359;-56
2022/11/03 19:59:01;;;;;;;;;8.25;5.50;;;;;;;;5032363;28;51239;-57
2022/11/03 20:01:45;;;;;;;;;10.75;8.25;;;;;;;;5035280;28;51170;-58
2022/11/03 20:04:30;;;;;;;;;10.75;7.50;;;;;;;;5036408;28;51185;-58
2022/11/03 20:07:15;;;;;;;;;8.25;7.25;;;;;;;;5037671;28;51191;-56
2022/11/03 20:10:00;;;;;;;;;9.25;8.25;;;;;;;;5035208;28;51159;-58
2022/11/03 20:12:45;;;;;;;;;8.25;5.00;;;;;;;;5035810;28;51482;-55
2022/11/03 20:15:29;;;;;;;;;7.50;7.50;;;;;;;;5034201;28;51122;-57
2022/11/03 20:18:14;;;;;;;;;11.00;9.00;;;;;;;;5037213;28;51176;-57
2022/11/03 20:20:58;;;;;;;;;10.75;7.75;;;;;;;;5034308;28;51363;-53
2022/11/03 20:23:43;;;;;;;;;8.75;5.25;;;;;;;;5036414;28;51165;-57
2022/11/03 20:26:28;;;;;;;;;10.25;5.75;;;;;;;;5034651;28;51191;-54
2022/11/03 20:29:14;;;;;;;;;10.00;6.00;;;;;;;;5035177;28;51066;-56
2022/11/03 20:31:58;;;;;;;;;8.00;6.50;;;;;;;;5039648;28;51055;-54
2022/11/03 20:34:45;;;;;;;;;14.50;6.50;;;;;;;;5038868;28;51144;-57
2022/11/03 20:37:30;;;;;;;;;12.75;8.00;;;;;;;;5040076;28;51358;-57
2022/11/03 20:40:15;;;;;;;;;8.75;5.50;;;;;;;;5032962;28;51390;-53
2022/11/03 20:43:01;;;;;;;;;9.75;7.50;;;;;;;;5039893;28;51104;-53
2022/11/03 20:45:44;;;;;;;;;7.00;4.00;;;;;;;;5038855;28;52117;-55
2022/11/03 20:48:29;;;;;;;;;7.00;7.00;;;;;;;;5039256;28;51113;-54
2022/11/03 20:51:14;;;;;;;;;9.00;7.00;;;;;;;;5036475;28;51082;-56
2022/11/03 20:54:00;;;;;;;;;10.75;7.75;;;;;;;;5039758;28;50976;-57
2022/11/03 20:56:45;;;;;;;;;8.50;3.75;;;;;;;;5038389;28;51371;-56
2022/11/03 20:59:29;;;;;;;;;11.50;10.25;;;;;;;;5038305;28;51152;-54
2022/11/03 21:02:13;;;;;;;;;13.00;7.75;;;;;;;;5038941;28;51695;-55
2022/11/03 21:04:58;;;;;;;;;8.75;7.75;;;;;;;;5039857;28;51248;-60
2022/11/03 21:07:43;;;;;;;;;8.75;8.00;;;;;;;;5037804;28;51112;-58
2022/11/03 21:10:27;;;;;;;;;7.00;7.00;;;;;;;;5037726;28;51373;-55
2022/11/03 21:13:13;;;;;;;;;9.00;6.50;;;;;;;;5037044;28;51125;-57
2022/11/03 21:22:13;;;;;;;;;10.25;8.25;;;;;;;;5039128;28;51453;-58
2022/11/03 21:24:57;;;;;;;;;8.75;7.00;;;;;;;;5043756;28;51130;-55
2022/11/03 21:27:42;;;;;;;;;11.25;7.75;;;;;;;;5041202;28;51172;-55
2022/11/03 21:30:26;;;;;;;;;7.50;5.50;;;;;;;;5036984;28;51187;-55
2022/11/03 21:33:11;;;;;;;;;7.50;5.25;;;;;;;;5041019;28;51054;-57
2022/11/03 21:35:55;;;;;;;;;10.75;7.00;;;;;;;;5039627;28;51105;-55
2022/11/03 21:38:39;;;;;;;;;8.50;6.00;;;;;;;;5039065;28;51053;-55
2022/11/03 21:44:27;;;;;;;;;12.75;6.50;;;;;;;;5036477;28;51169;-52
2022/11/03 21:47:11;;;;;;;;;6.00;3.00;;;;;;;;5038565;28;51478;-53
2022/11/03 21:49:55;;;;;;;;;11.50;6.75;;;;;;;;5032437;28;51444;-56
2022/11/03 21:52:40;;;;;;;;;7.75;5.00;;;;;;;;5035533;28;52769;-53
2022/11/03 21:55:24;;;;;;;;;7.50;4.50;;;;;;;;5040765;28;51118;-56
2022/11/03 21:58:09;;;;;;;;;7.50;3.50;;;;;;;;5039150;28;51090;-53
2022/11/03 22:00:53;;;;;;;;;8.00;5.25;;;;;;;;5034394;28;51200;-56
2022/11/03 22:03:38;;;;;;;;;9.00;6.25;;;;;;;;5040570;28;51094;-58
2022/11/03 22:06:22;;;;;;;;;14.25;6.75;;;;;;;;5039984;28;51147;-57
2022/11/03 22:09:06;;;;;;;;;8.75;5.75;;;;;;;;5041031;28;51076;-55
2022/11/03 22:11:51;;;;;;;;;6.50;6.25;;;;;;;;5040349;28;51400;-56
2022/11/03 22:17:39;;;;;;;;;4.75;4.75;;;;;;;;5040082;28;50979;-58
2022/11/03 22:32:35;;;;;;;;;9.75;7.00;;;;;;;;5036709;28;51049;-55
2022/11/03 22:45:49;;;;;;;;;6.50;4.00;;;;;;;;5035793;28;51103;-58
2022/11/03 22:47:32;;;;;;;;;11.75;8.00;;;;;;;;5037605;28;51171;-55
2022/11/03 22:50:17;;;;;;;;;10.25;8.25;;;;;;;;5033339;28;51023;-55
2022/11/03 22:54:08;;;;;;;;;8.00;6.75;;;;;;;;5037060;28;51164;-59
2022/11/03 22:56:06;;;;;;;;;5.75;5.75;;;;;;;;5038082;28;51359;-56
2022/11/03 22:58:50;;;;;;;;;8.75;4.50;;;;;;;;5037710;28;51165;-55
2022/11/03 23:01:35;;;;;;;;;7.25;7.00;;;;;;;;5035447;28;51179;-54
2022/11/03 23:04:19;;;;;;;;;12.25;6.50;;;;;;;;5036624;28;51992;-57
2022/11/03 23:07:03;;;;;;;;;12.25;7.25;;;;;;;;5035106;28;51153;-55
2022/11/03 23:09:48;;;;;;;;;9.25;6.50;;;;;;;;5032790;28;51035;-55
2022/11/03 23:12:32;;;;;;;;;9.25;4.25;;;;;;;;5037011;28;51164;-56
2022/11/03 23:15:31;;;;;;;;;7.00;7.00;;;;;;;;5036449;28;51721;-57
2022/11/03 23:21:18;;;;;;;;;13.00;7.25;;;;;;;;5036147;28;51050;-55
2022/11/03 23:27:06;;;;;;;;;7.75;6.25;;;;;;;;5038523;28;51155;-52
2022/11/03 23:29:51;;;;;;;;;12.50;7.25;;;;;;;;5035446;28;51188;-55
2022/11/03 23:32:35;;;;;;;;;7.00;5.75;;;;;;;;5034328;28;51123;-56
2022/11/03 23:35:20;;;;;;;;;8.75;8.00;;;;;;;;5035492;28;51904;-57
2022/11/03 23:38:04;;;;;;;;;8.25;6.00;;;;;;;;5038162;28;51218;-54
2022/11/03 23:40:48;;;;;;;;;13.75;7.00;;;;;;;;5029818;28;51165;-52
2022/11/03 23:43:33;;;;;;;;;15.50;6.50;;;;;;;;5027452;28;51224;-55
2022/11/03 23:49:24;;;;;;;;;8.50;7.25;;;;;;;;5032264;28;51092;-55
2022/11/03 23:52:09;;;;;;;;;12.50;6.50;;;;;;;;5036009;28;51205;-55
2022/11/03 23:54:53;;;;;;;;;10.25;7.00;;;;;;;;5035769;28;51572;-58
